sensor_id;sensor_type;location;lat;lon;timestamp;P1;durP1;ratioP1;P2;durP2;ratioP2
50092;SDS011;35974;47.752;10.290;2024-03-08T00:01:57;35.22;;;17.98;;
50092;SDS011;35974;47.752;10.290;2024-03-08T00:04:24;36.35;;;19.08;;
50092;SDS011;35974;47.752;10.290;2024-03-08T00:06:51;37.88;;;18.38;;
50092;SDS011;35974;47.752;10.290;2024-03-08T00:09:18;38.45;;;19.20;;
50092;SDS011;35974;47.752;10.290;2024-03-08T00:11:44;36.97;;;19.05;;
50092;SDS011;35974;47.752;10.290;2024-03-08T00:14:11;36.88;;;18.95;;
50092;SDS011;35974;47.752;10.290;2024-03-08T00:16:37;38.00;;;19.02;;
50092;SDS011;35974;47.752;10.290;2024-03-08T00:19:09;35.00;;;18.10;;
50092;SDS011;35974;47.752;10.290;2024-03-08T00:21:44;37.55;;;19.00;;
50092;SDS011;35974;47.752;10.290;2024-03-08T00:24:11;38.22;;;18.88;;
50092;SDS011;35974;47.752;10.290;2024-03-08T00:26:38;38.75;;;19.35;;
50092;SDS011;35974;47.752;10.290;2024-03-08T00:29:04;36.95;;;19.85;;
50092;SDS011;35974;47.752;10.290;2024-03-08T00:31:32;38.85;;;19.38;;
50092;SDS011;35974;47.752;10.290;2024-03-08T00:33:58;38.90;;;21.23;;
50092;SDS011;35974;47.752;10.290;2024-03-08T00:36:25;37.17;;;19.83;;
50092;SDS011;35974;47.752;10.290;2024-03-08T00:38:52;33.20;;;18.08;;
50092;SDS011;35974;47.752;10.290;2024-03-08T00:41:19;36.55;;;18.83;;
50092;SDS011;35974;47.752;10.290;2024-03-08T00:43:55;35.53;;;19.20;;
50092;SDS011;35974;47.752;10.290;2024-03-08T00:46:22;36.20;;;18.33;;
50092;SDS011;35974;47.752;10.290;2024-03-08T00:48:48;36.20;;;18.80;;
50092;SDS011;35974;47.752;10.290;2024-03-08T00:51:15;32.85;;;18.45;;
50092;SDS011;35974;47.752;10.290;2024-03-08T00:53:42;36.05;;;18.70;;
50092;SDS011;35974;47.752;10.290;2024-03-08T00:56:09;37.42;;;18.95;;
50092;SDS011;35974;47.752;10.290;2024-03-08T00:58:38;39.00;;;19.25;;
50092;SDS011;35974;47.752;10.290;2024-03-08T01:01:05;34.55;;;19.08;;
50092;SDS011;35974;47.752;10.290;2024-03-08T01:03:31;34.75;;;18.17;;
50092;SDS011;35974;47.752;10.290;2024-03-08T01:05:58;32.28;;;17.80;;
50092;SDS011;35974;47.752;10.290;2024-03-08T01:08:27;35.85;;;18.38;;
50092;SDS011;35974;47.752;10.290;2024-03-08T01:10:54;37.90;;;18.83;;
50092;SDS011;35974;47.752;10.290;2024-03-08T01:13:20;38.22;;;18.88;;
50092;SDS011;35974;47.752;10.290;2024-03-08T01:15:47;35.38;;;18.83;;
50092;SDS011;35974;47.752;10.290;2024-03-08T01:18:14;37.13;;;19.08;;
50092;SDS011;35974;47.752;10.290;2024-03-08T01:20:40;37.22;;;19.15;;
50092;SDS011;35974;47.752;10.290;2024-03-08T01:23:10;37.78;;;20.25;;
50092;SDS011;35974;47.752;10.290;2024-03-08T01:25:37;36.85;;;19.23;;
50092;SDS011;35974;47.752;10.290;2024-03-08T01:28:09;38.15;;;19.38;;
50092;SDS011;35974;47.752;10.290;2024-03-08T01:30:36;34.50;;;18.48;;
50092;SDS011;35974;47.752;10.290;2024-03-08T01:33:03;38.78;;;19.58;;
50092;SDS011;35974;47.752;10.290;2024-03-08T01:35:30;34.58;;;18.73;;
50092;SDS011;35974;47.752;10.290;2024-03-08T01:37:57;42.03;;;19.20;;
50092;SDS011;35974;47.752;10.290;2024-03-08T01:40:23;38.67;;;19.42;;
50092;SDS011;35974;47.752;10.290;2024-03-08T01:42:50;35.97;;;19.30;;
50092;SDS011;35974;47.752;10.290;2024-03-08T01:45:16;38.53;;;19.42;;
50092;SDS011;35974;47.752;10.290;2024-03-08T01:47:43;33.90;;;18.63;;
50092;SDS011;35974;47.752;10.290;2024-03-08T01:50:09;39.53;;;20.45;;
50092;SDS011;35974;47.752;10.290;2024-03-08T01:52:37;37.00;;;19.42;;
50092;SDS011;35974;47.752;10.290;2024-03-08T01:55:03;47.22;;;21.80;;
50092;SDS011;35974;47.752;10.290;2024-03-08T01:57:33;37.30;;;19.65;;
50092;SDS011;35974;47.752;10.290;2024-03-08T02:00:01;39.65;;;19.38;;
50092;SDS011;35974;47.752;10.290;2024-03-08T02:02:32;40.28;;;19.98;;
50092;SDS011;35974;47.752;10.290;2024-03-08T02:05:00;37.58;;;19.70;;
50092;SDS011;35974;47.752;10.290;2024-03-08T02:07:30;38.03;;;18.05;;
50092;SDS011;35974;47.752;10.290;2024-03-08T02:09:57;36.15;;;18.42;;
50092;SDS011;35974;47.752;10.290;2024-03-08T02:12:24;37.80;;;18.83;;
50092;SDS011;35974;47.752;10.290;2024-03-08T02:14:50;37.47;;;18.90;;
50092;SDS011;35974;47.752;10.290;2024-03-08T02:17:17;34.40;;;17.83;;
50092;SDS011;35974;47.752;10.290;2024-03-08T02:19:43;38.78;;;19.80;;
50092;SDS011;35974;47.752;10.290;2024-03-08T02:22:10;38.13;;;19.10;;
50092;SDS011;35974;47.752;10.290;2024-03-08T02:24:37;36.17;;;18.90;;
50092;SDS011;35974;47.752;10.290;2024-03-08T02:27:03;33.50;;;18.35;;
50092;SDS011;35974;47.752;10.290;2024-03-08T02:29:30;36.97;;;18.98;;
50092;SDS011;35974;47.752;10.290;2024-03-08T02:31:57;38.05;;;18.98;;
50092;SDS011;35974;47.752;10.290;2024-03-08T02:34:24;39.00;;;18.75;;
50092;SDS011;35974;47.752;10.290;2024-03-08T02:36:51;38.13;;;19.88;;
50092;SDS011;35974;47.752;10.290;2024-03-08T02:39:18;36.22;;;18.38;;
50092;SDS011;35974;47.752;10.290;2024-03-08T02:41:51;39.20;;;19.70;;
50092;SDS011;35974;47.752;10.290;2024-03-08T02:44:18;36.85;;;18.77;;
50092;SDS011;35974;47.752;10.290;2024-03-08T02:46:47;33.90;;;17.77;;
50092;SDS011;35974;47.752;10.290;2024-03-08T02:49:14;35.00;;;18.23;;
50092;SDS011;35974;47.752;10.290;2024-03-08T02:51:40;35.97;;;18.73;;
50092;SDS011;35974;47.752;10.290;2024-03-08T02:54:07;38.88;;;18.45;;
50092;SDS011;35974;47.752;10.290;2024-03-08T02:56:34;34.70;;;17.67;;
50092;SDS011;35974;47.752;10.290;2024-03-08T02:59:01;34.50;;;17.48;;
50092;SDS011;35974;47.752;10.290;2024-03-08T03:01:28;31.17;;;16.02;;
50092;SDS011;35974;47.752;10.290;2024-03-08T03:03:54;34.65;;;16.58;;
50092;SDS011;35974;47.752;10.290;2024-03-08T03:06:21;31.80;;;16.02;;
50092;SDS011;35974;47.752;10.290;2024-03-08T03:08:48;36.13;;;17.92;;
50092;SDS011;35974;47.752;10.290;2024-03-08T03:11:15;33.03;;;17.35;;
50092;SDS011;35974;47.752;10.290;2024-03-08T03:13:41;32.63;;;16.83;;
50092;SDS011;35974;47.752;10.290;2024-03-08T03:16:08;33.60;;;16.48;;
50092;SDS011;35974;47.752;10.290;2024-03-08T03:18:36;32.03;;;16.88;;
50092;SDS011;35974;47.752;10.290;2024-03-08T03:21:03;34.40;;;17.38;;
50092;SDS011;35974;47.752;10.290;2024-03-08T03:23:33;33.83;;;16.98;;
50092;SDS011;35974;47.752;10.290;2024-03-08T03:26:01;35.35;;;17.25;;
50092;SDS011;35974;47.752;10.290;2024-03-08T03:28:28;33.42;;;16.48;;
50092;SDS011;35974;47.752;10.290;2024-03-08T03:30:55;33.30;;;16.40;;
50092;SDS011;35974;47.752;10.290;2024-03-08T03:33:25;30.73;;;15.77;;
50092;SDS011;35974;47.752;10.290;2024-03-08T03:35:52;35.42;;;16.80;;
50092;SDS011;35974;47.752;10.290;2024-03-08T03:38:18;33.47;;;16.23;;
50092;SDS011;35974;47.752;10.290;2024-03-08T03:40:49;35.80;;;17.42;;
50092;SDS011;35974;47.752;10.290;2024-03-08T03:43:18;30.13;;;16.10;;
50092;SDS011;35974;47.752;10.290;2024-03-08T03:45:45;30.40;;;16.48;;
50092;SDS011;35974;47.752;10.290;2024-03-08T03:48:11;31.65;;;16.75;;
50092;SDS011;35974;47.752;10.290;2024-03-08T03:50:38;30.50;;;16.35;;
50092;SDS011;35974;47.752;10.290;2024-03-08T03:53:06;32.53;;;15.40;;
50092;SDS011;35974;47.752;10.290;2024-03-08T03:55:37;31.48;;;16.17;;
50092;SDS011;35974;47.752;10.290;2024-03-08T03:58:06;33.90;;;15.95;;
50092;SDS011;35974;47.752;10.290;2024-03-08T04:00:33;29.58;;;15.73;;
50092;SDS011;35974;47.752;10.290;2024-03-08T04:02:59;33.88;;;16.20;;
50092;SDS011;35974;47.752;10.290;2024-03-08T04:05:27;34.13;;;16.42;;
50092;SDS011;35974;47.752;10.290;2024-03-08T04:07:54;30.67;;;16.63;;
50092;SDS011;35974;47.752;10.290;2024-03-08T04:10:21;31.05;;;16.33;;
50092;SDS011;35974;47.752;10.290;2024-03-08T04:12:47;31.70;;;15.45;;
50092;SDS011;35974;47.752;10.290;2024-03-08T04:15:14;34.72;;;15.65;;
50092;SDS011;35974;47.752;10.290;2024-03-08T04:17:41;33.72;;;16.42;;
50092;SDS011;35974;47.752;10.290;2024-03-08T04:20:08;34.00;;;16.15;;
50092;SDS011;35974;47.752;10.290;2024-03-08T04:22:36;31.38;;;16.05;;
50092;SDS011;35974;47.752;10.290;2024-03-08T04:25:03;27.77;;;14.40;;
50092;SDS011;35974;47.752;10.290;2024-03-08T04:27:31;32.88;;;15.88;;
50092;SDS011;35974;47.752;10.290;2024-03-08T04:29:59;30.33;;;15.50;;
50092;SDS011;35974;47.752;10.290;2024-03-08T04:32:26;28.80;;;14.25;;
50092;SDS011;35974;47.752;10.290;2024-03-08T04:34:52;28.88;;;14.27;;
50092;SDS011;35974;47.752;10.290;2024-03-08T04:37:19;31.50;;;14.48;;
50092;SDS011;35974;47.752;10.290;2024-03-08T04:39:48;33.70;;;14.85;;
50092;SDS011;35974;47.752;10.290;2024-03-08T04:42:14;35.08;;;15.75;;
50092;SDS011;35974;47.752;10.290;2024-03-08T04:44:42;30.67;;;15.45;;
50092;SDS011;35974;47.752;10.290;2024-03-08T04:47:09;31.20;;;15.32;;
50092;SDS011;35974;47.752;10.290;2024-03-08T04:49:38;31.75;;;15.57;;
50092;SDS011;35974;47.752;10.290;2024-03-08T04:52:04;32.20;;;15.43;;
50092;SDS011;35974;47.752;10.290;2024-03-08T04:54:31;31.65;;;15.70;;
50092;SDS011;35974;47.752;10.290;2024-03-08T04:57:06;29.92;;;15.15;;
50092;SDS011;35974;47.752;10.290;2024-03-08T04:59:35;27.80;;;14.77;;
50092;SDS011;35974;47.752;10.290;2024-03-08T05:02:02;29.13;;;14.38;;
50092;SDS011;35974;47.752;10.290;2024-03-08T05:04:29;33.58;;;15.27;;
50092;SDS011;35974;47.752;10.290;2024-03-08T05:06:56;29.45;;;14.20;;
50092;SDS011;35974;47.752;10.290;2024-03-08T05:09:23;27.40;;;13.63;;
50092;SDS011;35974;47.752;10.290;2024-03-08T05:11:50;29.95;;;14.35;;
50092;SDS011;35974;47.752;10.290;2024-03-08T05:14:16;28.33;;;13.57;;
50092;SDS011;35974;47.752;10.290;2024-03-08T05:16:44;26.48;;;13.55;;
50092;SDS011;35974;47.752;10.290;2024-03-08T05:19:19;29.00;;;14.15;;
50092;SDS011;35974;47.752;10.290;2024-03-08T05:21:47;24.50;;;12.63;;
50092;SDS011;35974;47.752;10.290;2024-03-08T05:24:14;25.30;;;12.13;;
50092;SDS011;35974;47.752;10.290;2024-03-08T05:26:44;27.10;;;13.43;;
50092;SDS011;35974;47.752;10.290;2024-03-08T05:29:13;26.88;;;12.50;;
50092;SDS011;35974;47.752;10.290;2024-03-08T05:31:48;23.08;;;11.50;;
50092;SDS011;35974;47.752;10.290;2024-03-08T05:34:16;29.40;;;12.52;;
50092;SDS011;35974;47.752;10.290;2024-03-08T05:36:43;28.30;;;12.35;;
50092;SDS011;35974;47.752;10.290;2024-03-08T05:39:13;25.83;;;13.02;;
50092;SDS011;35974;47.752;10.290;2024-03-08T05:41:40;24.23;;;11.65;;
50092;SDS011;35974;47.752;10.290;2024-03-08T05:44:07;25.25;;;12.07;;
50092;SDS011;35974;47.752;10.290;2024-03-08T05:46:34;23.25;;;11.55;;
50092;SDS011;35974;47.752;10.290;2024-03-08T05:49:02;21.50;;;11.90;;
50092;SDS011;35974;47.752;10.290;2024-03-08T05:51:33;24.20;;;12.43;;
50092;SDS011;35974;47.752;10.290;2024-03-08T05:54:03;24.02;;;12.10;;
50092;SDS011;35974;47.752;10.290;2024-03-08T05:56:32;23.65;;;11.30;;
50092;SDS011;35974;47.752;10.290;2024-03-08T05:58:59;23.33;;;11.13;;
50092;SDS011;35974;47.752;10.290;2024-03-08T06:01:33;24.70;;;11.45;;
50092;SDS011;35974;47.752;10.290;2024-03-08T06:04:03;30.27;;;12.15;;
50092;SDS011;35974;47.752;10.290;2024-03-08T06:06:29;29.13;;;12.73;;
50092;SDS011;35974;47.752;10.290;2024-03-08T06:08:57;26.05;;;11.65;;
50092;SDS011;35974;47.752;10.290;2024-03-08T06:11:25;22.77;;;11.07;;
50092;SDS011;35974;47.752;10.290;2024-03-08T06:13:56;20.15;;;11.35;;
50092;SDS011;35974;47.752;10.290;2024-03-08T06:16:26;21.02;;;11.18;;
50092;SDS011;35974;47.752;10.290;2024-03-08T06:18:56;20.25;;;10.70;;
50092;SDS011;35974;47.752;10.290;2024-03-08T06:21:23;23.00;;;10.80;;
50092;SDS011;35974;47.752;10.290;2024-03-08T06:23:53;20.92;;;10.48;;
50092;SDS011;35974;47.752;10.290;2024-03-08T06:26:21;20.67;;;10.40;;
50092;SDS011;35974;47.752;10.290;2024-03-08T06:28:48;28.95;;;10.98;;
50092;SDS011;35974;47.752;10.290;2024-03-08T06:31:15;19.35;;;9.98;;
50092;SDS011;35974;47.752;10.290;2024-03-08T06:33:41;33.03;;;11.18;;
50092;SDS011;35974;47.752;10.290;2024-03-08T06:36:08;23.10;;;10.75;;
50092;SDS011;35974;47.752;10.290;2024-03-08T06:38:35;26.58;;;10.38;;
50092;SDS011;35974;47.752;10.290;2024-03-08T06:41:02;20.58;;;10.45;;
50092;SDS011;35974;47.752;10.290;2024-03-08T06:43:30;18.98;;;9.13;;
50092;SDS011;35974;47.752;10.290;2024-03-08T06:46:00;16.98;;;9.30;;
50092;SDS011;35974;47.752;10.290;2024-03-08T06:48:26;20.42;;;10.23;;
50092;SDS011;35974;47.752;10.290;2024-03-08T06:50:53;18.08;;;8.93;;
50092;SDS011;35974;47.752;10.290;2024-03-08T06:53:19;19.35;;;9.32;;
50092;SDS011;35974;47.752;10.290;2024-03-08T06:55:50;16.83;;;9.23;;
50092;SDS011;35974;47.752;10.290;2024-03-08T06:58:16;22.58;;;9.43;;
50092;SDS011;35974;47.752;10.290;2024-03-08T07:00:43;18.45;;;8.40;;
50092;SDS011;35974;47.752;10.290;2024-03-08T07:03:10;18.50;;;8.80;;
50092;SDS011;35974;47.752;10.290;2024-03-08T07:05:38;18.75;;;9.00;;
50092;SDS011;35974;47.752;10.290;2024-03-08T07:08:06;19.02;;;9.75;;
50092;SDS011;35974;47.752;10.290;2024-03-08T07:10:34;17.17;;;9.55;;
50092;SDS011;35974;47.752;10.290;2024-03-08T07:13:01;15.10;;;8.02;;
50092;SDS011;35974;47.752;10.290;2024-03-08T07:15:38;13.55;;;7.40;;
50092;SDS011;35974;47.752;10.290;2024-03-08T07:18:05;41.33;;;10.15;;
50092;SDS011;35974;47.752;10.290;2024-03-08T07:20:35;16.30;;;7.35;;
50092;SDS011;35974;47.752;10.290;2024-03-08T07:23:03;13.45;;;7.55;;
50092;SDS011;35974;47.752;10.290;2024-03-08T07:25:32;12.90;;;6.95;;
50092;SDS011;35974;47.752;10.290;2024-03-08T07:27:59;14.30;;;7.35;;
50092;SDS011;35974;47.752;10.290;2024-03-08T07:30:27;17.05;;;7.22;;
50092;SDS011;35974;47.752;10.290;2024-03-08T07:35:46;19.35;;;7.10;;
50092;SDS011;35974;47.752;10.290;2024-03-08T07:38:13;12.13;;;6.80;;
50092;SDS011;35974;47.752;10.290;2024-03-08T07:40:41;13.88;;;7.20;;
50092;SDS011;35974;47.752;10.290;2024-03-08T07:43:11;16.98;;;6.47;;
50092;SDS011;35974;47.752;10.290;2024-03-08T07:45:41;12.45;;;6.50;;
50092;SDS011;35974;47.752;10.290;2024-03-08T07:48:13;10.82;;;5.85;;
50092;SDS011;35974;47.752;10.290;2024-03-08T07:50:40;14.68;;;6.93;;
50092;SDS011;35974;47.752;10.290;2024-03-08T07:53:08;13.60;;;6.68;;
50092;SDS011;35974;47.752;10.290;2024-03-08T07:55:35;11.43;;;5.95;;
50092;SDS011;35974;47.752;10.290;2024-03-08T07:58:02;14.05;;;6.45;;
50092;SDS011;35974;47.752;10.290;2024-03-08T08:00:30;10.27;;;6.00;;
50092;SDS011;35974;47.752;10.290;2024-03-08T08:03:00;13.02;;;6.03;;
50092;SDS011;35974;47.752;10.290;2024-03-08T08:05:27;16.30;;;6.70;;
50092;SDS011;35974;47.752;10.290;2024-03-08T08:07:53;17.27;;;6.75;;
50092;SDS011;35974;47.752;10.290;2024-03-08T08:10:20;9.60;;;5.80;;
50092;SDS011;35974;47.752;10.290;2024-03-08T08:12:52;13.25;;;6.68;;
50092;SDS011;35974;47.752;10.290;2024-03-08T08:15:25;20.88;;;7.00;;
50092;SDS011;35974;47.752;10.290;2024-03-08T08:17:54;12.38;;;6.07;;
50092;SDS011;35974;47.752;10.290;2024-03-08T08:20:32;11.20;;;6.60;;
50092;SDS011;35974;47.752;10.290;2024-03-08T08:22:59;9.77;;;5.32;;
50092;SDS011;35974;47.752;10.290;2024-03-08T08:25:25;21.52;;;7.85;;
50092;SDS011;35974;47.752;10.290;2024-03-08T08:27:52;11.93;;;6.20;;
50092;SDS011;35974;47.752;10.290;2024-03-08T08:30:21;13.77;;;6.50;;
50092;SDS011;35974;47.752;10.290;2024-03-08T08:32:48;11.48;;;6.43;;
50092;SDS011;35974;47.752;10.290;2024-03-08T08:35:16;13.55;;;7.00;;
50092;SDS011;35974;47.752;10.290;2024-03-08T08:37:43;21.33;;;7.00;;
50092;SDS011;35974;47.752;10.290;2024-03-08T08:40:11;11.82;;;6.75;;
50092;SDS011;35974;47.752;10.290;2024-03-08T08:42:42;10.40;;;6.05;;
50092;SDS011;35974;47.752;10.290;2024-03-08T08:45:08;10.30;;;6.03;;
50092;SDS011;35974;47.752;10.290;2024-03-08T08:47:55;12.90;;;7.45;;
50092;SDS011;35974;47.752;10.290;2024-03-08T08:50:21;23.33;;;7.57;;
50092;SDS011;35974;47.752;10.290;2024-03-08T08:52:57;12.75;;;6.95;;
50092;SDS011;35974;47.752;10.290;2024-03-08T08:55:24;15.52;;;6.65;;
50092;SDS011;35974;47.752;10.290;2024-03-08T08:57:52;10.80;;;6.40;;
50092;SDS011;35974;47.752;10.290;2024-03-08T09:00:19;21.02;;;7.22;;
50092;SDS011;35974;47.752;10.290;2024-03-08T09:02:46;12.63;;;6.60;;
50092;SDS011;35974;47.752;10.290;2024-03-08T09:05:14;18.50;;;6.68;;
50092;SDS011;35974;47.752;10.290;2024-03-08T09:07:44;14.38;;;6.97;;
50092;SDS011;35974;47.752;10.290;2024-03-08T09:10:11;11.13;;;6.32;;
50092;SDS011;35974;47.752;10.290;2024-03-08T09:12:41;17.13;;;6.82;;
50092;SDS011;35974;47.752;10.290;2024-03-08T09:15:09;11.10;;;6.40;;
50092;SDS011;35974;47.752;10.290;2024-03-08T09:17:39;13.32;;;6.90;;
50092;SDS011;35974;47.752;10.290;2024-03-08T09:20:08;12.27;;;6.40;;
50092;SDS011;35974;47.752;10.290;2024-03-08T09:22:36;13.32;;;6.60;;
50092;SDS011;35974;47.752;10.290;2024-03-08T09:25:02;12.05;;;6.80;;
50092;SDS011;35974;47.752;10.290;2024-03-08T09:27:42;10.32;;;6.35;;
50092;SDS011;35974;47.752;10.290;2024-03-08T09:30:09;17.13;;;7.38;;
50092;SDS011;35974;47.752;10.290;2024-03-08T09:32:39;17.40;;;7.78;;
50092;SDS011;35974;47.752;10.290;2024-03-08T09:35:06;13.52;;;7.07;;
50092;SDS011;35974;47.752;10.290;2024-03-08T09:37:34;16.55;;;7.40;;
50092;SDS011;35974;47.752;10.290;2024-03-08T09:40:01;13.68;;;6.95;;
50092;SDS011;35974;47.752;10.290;2024-03-08T09:42:30;11.48;;;7.10;;
50092;SDS011;35974;47.752;10.290;2024-03-08T09:44:58;12.13;;;6.75;;
50092;SDS011;35974;47.752;10.290;2024-03-08T09:47:26;12.25;;;7.32;;
50092;SDS011;35974;47.752;10.290;2024-03-08T09:50:00;11.13;;;6.57;;
50092;SDS011;35974;47.752;10.290;2024-03-08T09:52:27;13.10;;;6.72;;
50092;SDS011;35974;47.752;10.290;2024-03-08T09:54:58;12.65;;;6.97;;
50092;SDS011;35974;47.752;10.290;2024-03-08T09:57:25;11.18;;;6.72;;
50092;SDS011;35974;47.752;10.290;2024-03-08T09:59:52;12.13;;;6.97;;
50092;SDS011;35974;47.752;10.290;2024-03-08T10:02:19;13.95;;;7.43;;
50092;SDS011;35974;47.752;10.290;2024-03-08T10:04:47;14.00;;;7.28;;
50092;SDS011;35974;47.752;10.290;2024-03-08T10:07:14;15.13;;;7.53;;
50092;SDS011;35974;47.752;10.290;2024-03-08T10:09:40;15.05;;;6.97;;
50092;SDS011;35974;47.752;10.290;2024-03-08T10:12:13;14.48;;;7.65;;
50092;SDS011;35974;47.752;10.290;2024-03-08T10:14:42;11.80;;;6.93;;
50092;SDS011;35974;47.752;10.290;2024-03-08T10:17:09;12.82;;;7.07;;
50092;SDS011;35974;47.752;10.290;2024-03-08T10:19:37;12.63;;;6.85;;
50092;SDS011;35974;47.752;10.290;2024-03-08T10:22:03;16.83;;;7.30;;
50092;SDS011;35974;47.752;10.290;2024-03-08T10:24:31;25.60;;;8.25;;
50092;SDS011;35974;47.752;10.290;2024-03-08T10:27:02;23.00;;;7.93;;
50092;SDS011;35974;47.752;10.290;2024-03-08T10:29:31;17.63;;;7.82;;
50092;SDS011;35974;47.752;10.290;2024-03-08T10:31:58;14.50;;;7.63;;
50092;SDS011;35974;47.752;10.290;2024-03-08T10:34:25;14.75;;;7.43;;
50092;SDS011;35974;47.752;10.290;2024-03-08T10:36:51;12.07;;;7.28;;
50092;SDS011;35974;47.752;10.290;2024-03-08T10:39:22;12.13;;;6.88;;
50092;SDS011;35974;47.752;10.290;2024-03-08T10:41:52;16.20;;;7.50;;
50092;SDS011;35974;47.752;10.290;2024-03-08T10:47:02;11.88;;;6.90;;
50092;SDS011;35974;47.752;10.290;2024-03-08T10:49:37;11.48;;;6.85;;
50092;SDS011;35974;47.752;10.290;2024-03-08T10:52:05;12.77;;;8.27;;
50092;SDS011;35974;47.752;10.290;2024-03-08T10:54:36;12.93;;;7.50;;
50092;SDS011;35974;47.752;10.290;2024-03-08T10:57:11;13.55;;;7.70;;
50092;SDS011;35974;47.752;10.290;2024-03-08T10:59:39;12.75;;;7.47;;
50092;SDS011;35974;47.752;10.290;2024-03-08T11:02:05;11.75;;;7.75;;
50092;SDS011;35974;47.752;10.290;2024-03-08T11:04:32;15.98;;;8.60;;
50092;SDS011;35974;47.752;10.290;2024-03-08T11:07:00;18.60;;;8.68;;
50092;SDS011;35974;47.752;10.290;2024-03-08T11:09:35;14.25;;;8.20;;
50092;SDS011;35974;47.752;10.290;2024-03-08T11:14:59;16.95;;;8.07;;
50092;SDS011;35974;47.752;10.290;2024-03-08T11:20:10;16.02;;;8.30;;
50092;SDS011;35974;47.752;10.290;2024-03-08T11:22:52;13.38;;;7.85;;
50092;SDS011;35974;47.752;10.290;2024-03-08T11:28:07;15.20;;;8.32;;
50092;SDS011;35974;47.752;10.290;2024-03-08T11:30:37;13.30;;;7.88;;
50092;SDS011;35974;47.752;10.290;2024-03-08T11:33:04;17.15;;;8.30;;
50092;SDS011;35974;47.752;10.290;2024-03-08T11:35:31;13.90;;;8.18;;
50092;SDS011;35974;47.752;10.290;2024-03-08T11:37:59;15.80;;;7.32;;
50092;SDS011;35974;47.752;10.290;2024-03-08T11:40:27;17.25;;;8.77;;
50092;SDS011;35974;47.752;10.290;2024-03-08T11:55:05;12.55;;;8.10;;
50092;SDS011;35974;47.752;10.290;2024-03-08T11:57:32;13.30;;;8.23;;
50092;SDS011;35974;47.752;10.290;2024-03-08T11:59:59;15.73;;;8.10;;
50092;SDS011;35974;47.752;10.290;2024-03-08T12:02:35;15.30;;;8.05;;
50092;SDS011;35974;47.752;10.290;2024-03-08T12:05:05;13.00;;;8.23;;
50092;SDS011;35974;47.752;10.290;2024-03-08T12:07:36;13.38;;;7.43;;
50092;SDS011;35974;47.752;10.290;2024-03-08T12:10:21;13.23;;;7.80;;
50092;SDS011;35974;47.752;10.290;2024-03-08T12:12:49;18.65;;;8.30;;
50092;SDS011;35974;47.752;10.290;2024-03-08T12:15:21;21.10;;;8.98;;
50092;SDS011;35974;47.752;10.290;2024-03-08T12:17:49;17.42;;;8.68;;
50092;SDS011;35974;47.752;10.290;2024-03-08T12:20:19;18.20;;;8.63;;
50092;SDS011;35974;47.752;10.290;2024-03-08T12:22:48;14.65;;;8.30;;
50092;SDS011;35974;47.752;10.290;2024-03-08T12:25:16;15.30;;;8.65;;
50092;SDS011;35974;47.752;10.290;2024-03-08T12:27:43;12.75;;;8.30;;
50092;SDS011;35974;47.752;10.290;2024-03-08T12:30:23;14.18;;;8.90;;
50092;SDS011;35974;47.752;10.290;2024-03-08T12:32:58;13.43;;;8.63;;
50092;SDS011;35974;47.752;10.290;2024-03-08T12:35:26;15.18;;;9.05;;
50092;SDS011;35974;47.752;10.290;2024-03-08T12:37:59;14.95;;;9.25;;
50092;SDS011;35974;47.752;10.290;2024-03-08T12:40:26;15.18;;;8.68;;
50092;SDS011;35974;47.752;10.290;2024-03-08T12:42:56;14.23;;;8.30;;
50092;SDS011;35974;47.752;10.290;2024-03-08T12:45:25;25.70;;;10.63;;
50092;SDS011;35974;47.752;10.290;2024-03-08T12:47:54;21.77;;;9.52;;
50092;SDS011;35974;47.752;10.290;2024-03-08T12:50:23;16.83;;;8.65;;
50092;SDS011;35974;47.752;10.290;2024-03-08T12:52:51;14.70;;;9.52;;
50092;SDS011;35974;47.752;10.290;2024-03-08T12:55:21;17.63;;;9.43;;
50092;SDS011;35974;47.752;10.290;2024-03-08T12:57:48;14.95;;;9.40;;
50092;SDS011;35974;47.752;10.290;2024-03-08T13:00:15;15.23;;;8.55;;
50092;SDS011;35974;47.752;10.290;2024-03-08T13:02:50;15.25;;;8.05;;
50092;SDS011;35974;47.752;10.290;2024-03-08T13:05:19;21.10;;;8.15;;
50092;SDS011;35974;47.752;10.290;2024-03-08T13:07:48;16.25;;;8.25;;
50092;SDS011;35974;47.752;10.290;2024-03-08T13:10:15;13.23;;;7.97;;
50092;SDS011;35974;47.752;10.290;2024-03-08T13:12:42;31.80;;;9.45;;
50092;SDS011;35974;47.752;10.290;2024-03-08T13:15:09;34.00;;;9.70;;
50092;SDS011;35974;47.752;10.290;2024-03-08T13:17:41;13.23;;;8.18;;
50092;SDS011;35974;47.752;10.290;2024-03-08T13:20:09;14.75;;;8.63;;
50092;SDS011;35974;47.752;10.290;2024-03-08T13:22:46;14.85;;;7.82;;
50092;SDS011;35974;47.752;10.290;2024-03-08T13:25:14;12.68;;;7.93;;
50092;SDS011;35974;47.752;10.290;2024-03-08T13:27:41;13.10;;;8.38;;
50092;SDS011;35974;47.752;10.290;2024-03-08T13:30:09;15.02;;;8.55;;
50092;SDS011;35974;47.752;10.290;2024-03-08T13:35:11;15.13;;;7.78;;
50092;SDS011;35974;47.752;10.290;2024-03-08T13:37:42;17.42;;;9.20;;
50092;SDS011;35974;47.752;10.290;2024-03-08T13:40:10;16.27;;;8.88;;
50092;SDS011;35974;47.752;10.290;2024-03-08T13:42:37;16.48;;;9.60;;
50092;SDS011;35974;47.752;10.290;2024-03-08T13:45:05;23.73;;;9.90;;
50092;SDS011;35974;47.752;10.290;2024-03-08T13:47:36;14.50;;;9.05;;
50092;SDS011;35974;47.752;10.290;2024-03-08T13:50:04;17.02;;;8.88;;
50092;SDS011;35974;47.752;10.290;2024-03-08T13:52:33;15.85;;;9.70;;
50092;SDS011;35974;47.752;10.290;2024-03-08T13:55:01;17.20;;;9.32;;
50092;SDS011;35974;47.752;10.290;2024-03-08T13:57:27;21.17;;;10.05;;
50092;SDS011;35974;47.752;10.290;2024-03-08T13:59:55;37.92;;;11.23;;
50092;SDS011;35974;47.752;10.290;2024-03-08T14:02:22;16.95;;;9.27;;
50092;SDS011;35974;47.752;10.290;2024-03-08T14:04:55;16.52;;;9.27;;
50092;SDS011;35974;47.752;10.290;2024-03-08T14:07:23;15.18;;;9.75;;
50092;SDS011;35974;47.752;10.290;2024-03-08T14:09:50;62.38;;;12.93;;
50092;SDS011;35974;47.752;10.290;2024-03-08T14:12:19;20.55;;;11.02;;
50092;SDS011;35974;47.752;10.290;2024-03-08T14:14:47;17.52;;;10.40;;
50092;SDS011;35974;47.752;10.290;2024-03-08T14:17:14;21.23;;;10.75;;
50092;SDS011;35974;47.752;10.290;2024-03-08T14:19:44;18.02;;;10.30;;
50092;SDS011;35974;47.752;10.290;2024-03-08T14:22:13;19.08;;;10.50;;
50092;SDS011;35974;47.752;10.290;2024-03-08T14:24:43;16.55;;;10.05;;
50092;SDS011;35974;47.752;10.290;2024-03-08T14:27:16;20.17;;;10.18;;
50092;SDS011;35974;47.752;10.290;2024-03-08T14:29:45;19.58;;;10.38;;
50092;SDS011;35974;47.752;10.290;2024-03-08T14:32:12;52.63;;;13.85;;
50092;SDS011;35974;47.752;10.290;2024-03-08T14:34:39;15.75;;;9.85;;
50092;SDS011;35974;47.752;10.290;2024-03-08T14:37:06;18.38;;;10.70;;
50092;SDS011;35974;47.752;10.290;2024-03-08T14:39:38;16.98;;;10.43;;
50092;SDS011;35974;47.752;10.290;2024-03-08T14:42:04;21.85;;;10.88;;
50092;SDS011;35974;47.752;10.290;2024-03-08T14:44:34;19.98;;;10.45;;
50092;SDS011;35974;47.752;10.290;2024-03-08T14:47:01;17.48;;;10.57;;
50092;SDS011;35974;47.752;10.290;2024-03-08T14:49:33;15.45;;;10.32;;
50092;SDS011;35974;47.752;10.290;2024-03-08T14:52:00;15.68;;;10.00;;